Aérodrome :
LOGIN :

S'inscrire | Disclaimer

   EN    FR    IT 

 










Légende :    VFR   VFR Marginal   IFR   IFR Intensif   IFR Très Intensif
Visi : 
Plafond : 
>= 8 km
>= 3000ft
5 à 8 km
1000 à 3000 ft
1500m à 5 km
500 à 1000 ft
800 à 1500m
200 à 500 ft
< 800m
< 200 ft
Symboles :   Orages  Brouillard  Fortes neiges  Fortes précipitations  Vent > 20 kt
SIGMETs :   Divers  Orages  Givrage  Turbulence  Onde Orograph.  Cendres Volcan.







- Altitude de l'aérodrome : 1058 ft
- Code IATA : SCN


EDDR - Saarbrücken

DERNIER METAR :
  • 182150Z AUTO 06001KT 9999 // NCD 11/09 Q1014

METARs EXPIRÉS :
  • 182120Z AUTO VRB02KT 9999 // NCD 12/09 Q1014
  • 182050Z 08003KT CAVOK 12/09 Q1014 NOSIG
  • 182020Z 07003KT CAVOK 12/09 Q1014 NOSIG
  • 181950Z 08003KT CAVOK 12/09 Q1014 NOSIG
  • 181920Z 08003KT CAVOK 13/09 Q1014 NOSIG
  • 181850Z 09002KT CAVOK 13/09 Q1014 NOSIG

TAF TAF EDDR
Valide du 18 à 18h jusqu'au 19 à 18h UTC


181700Z 1818/1918 09004KT CAVOK
BECMG 1908/1911 17006KT
Pas de NOTAMs connus pour ce terrain.



MET'MAP, la Météo Aéronautique d'un coup d'oeil ! - Copyright ORBIFLY Décembre 2007 - Disclaimer

ORBIFLY MET'MAP TEAM :

Programmation & Développement : Alexandra Zaïnal
Conception & Développement : Baudouin d'Aumeries
Co-Programmation & Développement : Marc-Olivier Méhu
Soutien technique & logistique : Manuel Goepfert

Contact : metmap@orbifly.com




SOURCES & CREDITS :

   NOAA